createdAt,value
2024-03-26T00:00:49.469Z,4.8739
2024-03-26T00:01:52.273Z,4.7653
2024-03-26T00:02:55.032Z,4.7761
2024-03-26T00:03:57.708Z,4.7322
2024-03-26T00:05:00.398Z,4.7203
2024-03-26T00:06:03.123Z,4.8454
2024-03-26T00:07:05.869Z,4.7634
2024-03-26T00:08:08.534Z,5.0156
2024-03-26T00:09:11.257Z,4.9022
2024-03-26T00:10:14.013Z,4.8447
2024-03-26T00:11:16.736Z,4.9412
2024-03-26T00:12:19.524Z,4.9116
2024-03-26T00:13:22.184Z,4.7862
2024-03-26T00:14:24.953Z,4.8175
2024-03-26T00:15:27.618Z,4.7901
2024-03-26T00:16:30.335Z,4.8249
2024-03-26T00:17:33.017Z,4.7037
2024-03-26T00:18:35.763Z,4.7212
2024-03-26T00:19:38.506Z,4.8819
2024-03-26T00:20:41.184Z,4.7795
2024-03-26T00:21:43.962Z,4.6819
2024-03-26T00:22:46.659Z,4.6668
2024-03-26T00:23:49.346Z,4.6478
2024-03-26T00:24:52.026Z,4.6101
2024-03-26T00:25:54.747Z,4.7447
2024-03-26T00:26:57.562Z,4.7723
2024-03-26T00:28:00.280Z,4.7221
2024-03-26T00:29:02.942Z,4.7049
2024-03-26T00:30:05.702Z,4.7148
2024-03-26T00:31:08.435Z,4.5540
2024-03-26T00:32:11.477Z,4.5143
2024-03-26T00:33:14.223Z,4.5057
2024-03-26T00:34:16.889Z,4.5982
2024-03-26T00:35:19.627Z,4.5798
2024-03-26T00:36:22.457Z,4.4882
2024-03-26T00:37:25.150Z,4.4723
2024-03-26T00:38:27.893Z,4.5267
2024-03-26T00:39:30.629Z,4.5474
2024-03-26T00:40:33.312Z,4.6233
2024-03-26T00:41:36.004Z,4.5941
2024-03-26T00:42:38.651Z,4.5224
2024-03-26T00:43:41.388Z,4.5082
2024-03-26T00:44:44.097Z,4.6046
2024-03-26T00:45:46.820Z,4.5383
2024-03-26T00:46:49.503Z,4.4953
2024-03-26T00:47:52.264Z,4.5002
2024-03-26T00:48:54.941Z,4.5073
2024-03-26T00:49:57.698Z,4.5681
2024-03-26T00:51:00.417Z,4.4643
2024-03-26T00:52:03.177Z,4.3775
2024-03-26T00:53:05.867Z,4.3066
2024-03-26T00:54:08.576Z,4.1956
2024-03-26T00:55:11.242Z,4.1075
2024-03-26T00:56:14.017Z,4.1993
2024-03-26T00:57:16.720Z,4.2287
2024-03-26T00:58:19.458Z,4.1207
2024-03-26T00:59:22.161Z,4.3456
2024-03-26T01:00:24.840Z,4.6039
2024-03-26T01:01:27.531Z,4.6008
2024-03-26T01:02:30.385Z,4.4355
2024-03-26T01:03:33.051Z,4.2069
2024-03-26T01:04:35.776Z,4.1284
2024-03-26T01:05:38.445Z,4.1556
2024-03-26T01:06:41.217Z,4.1637
2024-03-26T01:07:43.906Z,4.1827
2024-03-26T01:08:46.589Z,4.0832
2024-03-26T01:09:49.304Z,4.1600
2024-03-26T01:10:52.176Z,4.3742
2024-03-26T01:11:54.871Z,4.2409
2024-03-26T01:12:57.590Z,4.0097
2024-03-26T01:14:00.252Z,4.0663
2024-03-26T01:15:03.014Z,3.9290
2024-03-26T01:16:05.702Z,3.9645
2024-03-26T01:17:08.445Z,3.9588
2024-03-26T01:18:11.078Z,3.9842
2024-03-26T01:19:13.916Z,3.9228
2024-03-26T01:20:16.891Z,3.8322
2024-03-26T01:21:22.866Z,3.9152
2024-03-26T01:22:22.784Z,4.0913
2024-03-26T01:23:25.440Z,4.1136
2024-03-26T01:24:28.185Z,3.8958
2024-03-26T01:25:31.077Z,3.9786
2024-03-26T01:26:33.858Z,4.1421
2024-03-26T01:27:36.586Z,4.2318
2024-03-26T01:28:39.300Z,4.3732
2024-03-26T01:29:41.969Z,4.2785
2024-03-26T01:30:44.721Z,4.2466
2024-03-26T01:31:47.466Z,4.2800
2024-03-26T01:32:50.217Z,4.3759
2024-03-26T01:33:52.905Z,4.1585
2024-03-26T01:34:55.918Z,4.1741
2024-03-26T01:35:58.670Z,4.3041
2024-03-26T01:37:01.383Z,4.3076
2024-03-26T01:38:04.019Z,4.1119
2024-03-26T01:39:06.794Z,4.0480
2024-03-26T01:40:09.544Z,4.0207
2024-03-26T01:41:12.246Z,4.0124
2024-03-26T01:42:14.984Z,4.0439
2024-03-26T01:43:17.668Z,4.1100
2024-03-26T01:44:20.430Z,4.1097
2024-03-26T01:45:23.137Z,4.0490
2024-03-26T01:46:25.857Z,3.9562
2024-03-26T01:47:28.535Z,4.1183
2024-03-26T01:48:31.309Z,4.1222
2024-03-26T01:49:34.017Z,4.1467
2024-03-26T01:50:36.789Z,4.0928
2024-03-26T01:51:39.522Z,4.0685
2024-03-26T01:52:42.197Z,3.9700
2024-03-26T01:53:44.963Z,3.9562
2024-03-26T01:54:47.698Z,3.9735
2024-03-26T01:55:50.365Z,3.9571
2024-03-26T01:56:53.063Z,3.8805
2024-03-26T01:57:55.732Z,3.8448
2024-03-26T01:58:58.429Z,3.8215
2024-03-26T02:00:01.145Z,3.7744
2024-03-26T02:01:03.941Z,3.6350
2024-03-26T02:02:06.651Z,3.6337
2024-03-26T02:03:09.318Z,3.6341
2024-03-26T02:04:12.102Z,3.7787
2024-03-26T02:05:14.822Z,3.9869
2024-03-26T02:06:17.533Z,4.0087
2024-03-26T02:07:20.219Z,3.8651
2024-03-26T02:08:22.988Z,3.6012
2024-03-26T02:09:25.699Z,3.5900
2024-03-26T02:10:28.410Z,3.6969
2024-03-26T02:11:31.143Z,3.5424
2024-03-26T02:12:33.873Z,3.3702
2024-03-26T02:13:36.607Z,3.5117
2024-03-26T02:14:39.346Z,3.3683
2024-03-26T02:15:42.078Z,3.5301
2024-03-26T02:16:44.802Z,3.4993
2024-03-26T02:17:47.566Z,3.6678
2024-03-26T02:18:50.224Z,3.6696
2024-03-26T02:19:52.960Z,3.7179
2024-03-26T02:20:55.732Z,3.9209
2024-03-26T02:21:58.478Z,3.7869
2024-03-26T02:23:01.188Z,3.8004
2024-03-26T02:24:04.134Z,3.7080
2024-03-26T02:25:06.820Z,3.7526
2024-03-26T02:26:09.558Z,3.6756
2024-03-26T02:27:12.255Z,3.8752
2024-03-26T02:28:14.970Z,3.8069
2024-03-26T02:29:17.742Z,3.8316
2024-03-26T02:30:20.427Z,3.7184
2024-03-26T02:31:23.138Z,3.6874
2024-03-26T02:32:25.962Z,3.6179
2024-03-26T02:33:28.655Z,3.7805
2024-03-26T02:34:31.405Z,3.8688
2024-03-26T02:35:34.131Z,3.9161
2024-03-26T02:36:36.854Z,3.8868
2024-03-26T02:37:39.581Z,3.8409
2024-03-26T02:38:42.358Z,3.7942
2024-03-26T02:39:45.160Z,4.0014
2024-03-26T02:40:47.939Z,4.0023
2024-03-26T02:41:50.717Z,4.0071
2024-03-26T02:42:53.448Z,4.0050
2024-03-26T02:43:56.228Z,4.0023
2024-03-26T02:44:58.963Z,3.9393
2024-03-26T02:46:01.852Z,3.9608
2024-03-26T02:47:04.586Z,3.9627
2024-03-26T02:48:07.324Z,3.9130
2024-03-26T02:49:10.011Z,3.9096
2024-03-26T02:50:12.742Z,3.8014
2024-03-26T02:51:15.458Z,3.8304
2024-03-26T02:52:18.173Z,3.8310
2024-03-26T02:53:20.958Z,3.7733
2024-03-26T02:54:23.675Z,3.7945
2024-03-26T02:55:26.569Z,3.8967
2024-03-26T02:56:29.372Z,4.0608
2024-03-26T02:57:32.113Z,3.9629
2024-03-26T02:58:34.850Z,3.8887
2024-03-26T02:59:37.668Z,3.8104
2024-03-26T03:00:40.556Z,3.7679
2024-03-26T03:01:43.297Z,3.6639
2024-03-26T03:02:47.255Z,3.6604
2024-03-26T03:03:47.137Z,3.6815
2024-03-26T03:04:49.977Z,3.6415
2024-03-26T03:05:52.719Z,3.7458
2024-03-26T03:06:55.425Z,3.9459
2024-03-26T03:07:58.154Z,3.9548
2024-03-26T03:09:00.937Z,3.9502
2024-03-26T03:10:03.751Z,3.9578
2024-03-26T03:11:06.482Z,3.9364
2024-03-26T03:12:09.217Z,3.8409
2024-03-26T03:13:11.996Z,3.8510
2024-03-26T03:14:14.777Z,3.9105
2024-03-26T03:15:17.515Z,3.8019
2024-03-26T03:16:20.244Z,3.8737
2024-03-26T03:17:23.041Z,3.8771
2024-03-26T03:18:25.854Z,3.8563
2024-03-26T03:19:28.578Z,3.9094
2024-03-26T03:20:31.321Z,3.8633
2024-03-26T03:21:34.068Z,3.7406
2024-03-26T03:22:36.840Z,3.7615
2024-03-26T03:23:39.773Z,3.9534
2024-03-26T03:24:42.497Z,3.9178
2024-03-26T03:25:45.262Z,3.8994
2024-03-26T03:26:48.011Z,4.0166
2024-03-26T03:27:50.724Z,3.9360
2024-03-26T03:28:53.437Z,3.8013
2024-03-26T03:29:56.177Z,3.8246
2024-03-26T03:30:58.968Z,3.8586
2024-03-26T03:32:01.696Z,3.8209
2024-03-26T03:33:04.580Z,3.7519
2024-03-26T03:34:07.285Z,3.7402
2024-03-26T03:35:10.040Z,3.7202
2024-03-26T03:36:12.722Z,3.8084
2024-03-26T03:37:15.464Z,3.7577
2024-03-26T03:38:18.165Z,3.8280
2024-03-26T03:39:20.899Z,3.8212
2024-03-26T03:40:23.603Z,3.8749
2024-03-26T03:41:26.340Z,3.9341
2024-03-26T03:42:29.045Z,4.1042
2024-03-26T03:43:31.778Z,4.1295
2024-03-26T03:44:34.495Z,4.1114
2024-03-26T03:45:37.479Z,4.1651
2024-03-26T03:46:40.245Z,4.0793
2024-03-26T03:47:42.988Z,4.0161
2024-03-26T03:48:45.680Z,4.0912
2024-03-26T03:49:48.393Z,4.1771
2024-03-26T03:50:51.242Z,4.1634
2024-03-26T03:51:53.962Z,4.1231
2024-03-26T03:52:56.692Z,4.1391
2024-03-26T03:53:59.420Z,4.1867
2024-03-26T03:55:02.338Z,4.2142
2024-03-26T03:56:05.057Z,4.1882
2024-03-26T03:57:07.785Z,4.0772
2024-03-26T03:58:10.831Z,3.9703
2024-03-26T03:59:13.531Z,3.9189
2024-03-26T04:00:16.272Z,3.9256
2024-03-26T04:01:18.968Z,3.8649
2024-03-26T04:02:21.693Z,3.8998
2024-03-26T04:03:24.460Z,3.8899
2024-03-26T04:04:27.228Z,3.9712
2024-03-26T04:05:29.955Z,3.8945
2024-03-26T04:06:32.731Z,4.0404
2024-03-26T04:07:35.620Z,3.9913
2024-03-26T04:08:38.336Z,4.0565
2024-03-26T04:09:41.048Z,4.0348
2024-03-26T04:10:43.767Z,3.9983
2024-03-26T04:11:46.485Z,3.9566
2024-03-26T04:12:49.299Z,3.8885
2024-03-26T04:13:52.014Z,3.8778
2024-03-26T04:14:54.749Z,3.8289
2024-03-26T04:15:57.696Z,4.0247
2024-03-26T04:17:00.426Z,4.0501
2024-03-26T04:18:03.207Z,4.0701
2024-03-26T04:19:05.977Z,4.0989
2024-03-26T04:20:08.717Z,4.1185
2024-03-26T04:21:11.402Z,4.0936
2024-03-26T04:22:14.140Z,4.0278
2024-03-26T04:23:16.912Z,3.9697
2024-03-26T04:24:19.776Z,3.9189
2024-03-26T04:25:22.593Z,3.8494
2024-03-26T04:26:25.322Z,3.7670
2024-03-26T04:27:28.060Z,3.7452
2024-03-26T04:28:30.808Z,3.6338
2024-03-26T04:29:33.548Z,3.4990
2024-03-26T04:30:36.395Z,3.4984
2024-03-26T04:31:39.142Z,3.5519
2024-03-26T04:32:41.860Z,3.7614
2024-03-26T04:33:44.591Z,3.8164
2024-03-26T04:34:47.271Z,3.7980
2024-03-26T04:35:50.038Z,3.7940
2024-03-26T04:36:52.723Z,3.7862
2024-03-26T04:37:55.457Z,3.6623
2024-03-26T04:38:58.484Z,3.4553
2024-03-26T04:40:01.253Z,3.5036
2024-03-26T04:41:04.007Z,3.5513
2024-03-26T04:42:06.748Z,3.5783
2024-03-26T04:43:09.455Z,3.5513
2024-03-26T04:44:12.207Z,3.5645
2024-03-26T04:45:14.944Z,3.4709
2024-03-26T04:46:17.667Z,3.5016
2024-03-26T04:47:20.605Z,3.5541
2024-03-26T04:48:23.379Z,3.6252
2024-03-26T04:49:26.086Z,3.6197
2024-03-26T04:50:28.887Z,3.4700
2024-03-26T04:51:31.774Z,3.2877
2024-03-26T04:52:34.520Z,3.2907
2024-03-26T04:53:37.342Z,3.3187
2024-03-26T04:54:40.251Z,3.2913
2024-03-26T04:55:42.964Z,3.3214
2024-03-26T04:56:45.684Z,3.2534
2024-03-26T04:57:48.412Z,3.2166
2024-03-26T04:58:51.151Z,3.1168
2024-03-26T04:59:53.860Z,3.0923
2024-03-26T05:00:56.577Z,3.1272
2024-03-26T05:01:59.376Z,3.5148
2024-03-26T05:03:02.135Z,3.5492
2024-03-26T05:04:04.876Z,3.4453
2024-03-26T05:05:07.618Z,3.3755
2024-03-26T05:06:10.430Z,3.2502
2024-03-26T05:07:13.154Z,3.2803
2024-03-26T05:08:15.946Z,3.2926
2024-03-26T05:09:18.649Z,3.2905
2024-03-26T05:10:21.397Z,3.1745
2024-03-26T05:11:24.154Z,3.1017
2024-03-26T05:12:27.220Z,3.0922
2024-03-26T05:13:29.925Z,3.1362
2024-03-26T05:14:32.890Z,3.1895
2024-03-26T05:15:35.612Z,3.1972
2024-03-26T05:16:38.379Z,3.3025
2024-03-26T05:17:41.118Z,3.2790
2024-03-26T05:18:43.852Z,3.2355
2024-03-26T05:19:46.584Z,3.2324
2024-03-26T05:20:49.348Z,3.3009
2024-03-26T05:21:52.196Z,3.4229
2024-03-26T05:22:55.009Z,3.4169
2024-03-26T05:23:57.755Z,3.4375
2024-03-26T05:25:00.503Z,3.3374
2024-03-26T05:26:03.456Z,3.3935
2024-03-26T05:27:06.239Z,3.3745
2024-03-26T05:28:08.967Z,3.2784
2024-03-26T05:29:11.776Z,3.1567
2024-03-26T05:30:14.478Z,3.3086
2024-03-26T05:31:17.159Z,3.4570
2024-03-26T05:32:19.845Z,3.4711
2024-03-26T05:33:22.556Z,3.4350
2024-03-26T05:34:25.344Z,3.4473
2024-03-26T05:35:28.271Z,3.3742
2024-03-26T05:36:30.971Z,3.2604
2024-03-26T05:37:33.669Z,3.1705
2024-03-26T05:38:36.442Z,3.3220
2024-03-26T05:39:39.085Z,3.4197
2024-03-26T05:40:41.860Z,3.4099
2024-03-26T05:41:44.536Z,3.3554
2024-03-26T05:42:47.291Z,3.2920
2024-03-26T05:43:50.028Z,3.1451
2024-03-26T05:44:52.793Z,3.2100
2024-03-26T05:45:55.436Z,3.2174
2024-03-26T05:46:58.177Z,3.1578
2024-03-26T05:48:00.900Z,3.2241
2024-03-26T05:49:03.622Z,3.3662
2024-03-26T05:50:06.303Z,3.3997
2024-03-26T05:51:09.037Z,3.4863
2024-03-26T05:52:11.778Z,3.4795
2024-03-26T05:53:14.500Z,3.4509
2024-03-26T05:54:17.186Z,3.5022
2024-03-26T05:55:19.937Z,3.4507
2024-03-26T05:56:22.993Z,3.5923
2024-03-26T05:57:25.694Z,3.5325
2024-03-26T05:58:28.422Z,3.6347
2024-03-26T05:59:31.124Z,3.6372
2024-03-26T06:00:33.891Z,3.5722
2024-03-26T06:01:36.587Z,3.5464
2024-03-26T06:02:39.359Z,3.6065
2024-03-26T06:03:42.054Z,3.5967
2024-03-26T06:04:44.739Z,3.6206
2024-03-26T06:05:47.570Z,3.6259
2024-03-26T06:06:50.254Z,3.5981
2024-03-26T06:07:52.916Z,3.6406
2024-03-26T06:08:55.690Z,3.6897
2024-03-26T06:09:58.347Z,3.6540
2024-03-26T06:11:01.058Z,3.6681
2024-03-26T06:12:03.741Z,3.7093
2024-03-26T06:13:07.785Z,3.6277
2024-03-26T06:14:07.084Z,3.6314
2024-03-26T06:15:09.786Z,3.6458
2024-03-26T06:16:12.474Z,3.6409
2024-03-26T06:17:15.146Z,3.7360
2024-03-26T06:18:17.809Z,3.8314
2024-03-26T06:19:20.585Z,3.9197
2024-03-26T06:20:23.250Z,3.9900
2024-03-26T06:21:25.997Z,3.9924
2024-03-26T06:22:28.762Z,4.0335
2024-03-26T06:23:31.528Z,4.0726
2024-03-26T06:24:34.173Z,4.1385
2024-03-26T06:25:36.869Z,4.1554
2024-03-26T06:26:39.613Z,4.1829
2024-03-26T06:27:42.288Z,4.1744
2024-03-26T06:28:45.056Z,4.1839
2024-03-26T06:29:47.782Z,4.2662
2024-03-26T06:30:50.491Z,4.2472
2024-03-26T06:31:53.234Z,4.3352
2024-03-26T06:32:55.987Z,4.4103
2024-03-26T06:33:58.678Z,4.5235
2024-03-26T06:35:01.373Z,4.4138
2024-03-26T06:36:04.100Z,4.4874
2024-03-26T06:37:06.805Z,4.4824
2024-03-26T06:38:09.880Z,4.5991
2024-03-26T06:39:12.625Z,4.4371
2024-03-26T06:40:15.319Z,4.4971
2024-03-26T06:41:17.996Z,4.4848
2024-03-26T06:42:20.746Z,4.4855
2024-03-26T06:43:23.459Z,4.6063
2024-03-26T06:44:26.231Z,4.6570
2024-03-26T06:45:29.223Z,4.7304
2024-03-26T06:46:31.918Z,4.7583
2024-03-26T06:47:34.650Z,4.8316
2024-03-26T06:48:37.387Z,4.8687
2024-03-26T06:49:40.147Z,4.9381
2024-03-26T06:50:42.836Z,5.1259
2024-03-26T06:51:46.135Z,5.1737
2024-03-26T06:52:48.926Z,5.2304
2024-03-26T06:53:51.608Z,5.1083
2024-03-26T06:54:54.352Z,5.0728
2024-03-26T06:55:57.076Z,5.1931
2024-03-26T06:56:59.780Z,5.3577
2024-03-26T06:58:02.558Z,5.2084
2024-03-26T06:59:05.212Z,5.3746
2024-03-26T07:00:07.922Z,5.5415
2024-03-26T07:01:10.591Z,5.4968
2024-03-26T07:02:13.390Z,5.5076
2024-03-26T07:03:16.142Z,5.4020
2024-03-26T07:04:18.817Z,5.5179
2024-03-26T07:05:21.536Z,5.5404
2024-03-26T07:06:24.256Z,5.4689
2024-03-26T07:07:26.993Z,5.5134
2024-03-26T07:08:29.687Z,5.5943
2024-03-26T07:09:32.362Z,5.6164
2024-03-26T07:10:35.134Z,5.7079
2024-03-26T07:11:37.868Z,5.7045
2024-03-26T07:12:40.557Z,5.6137
2024-03-26T07:13:43.232Z,5.4797
2024-03-26T07:14:46.036Z,5.6190
2024-03-26T07:15:48.820Z,5.5173
2024-03-26T07:16:51.478Z,5.3676
2024-03-26T07:17:54.209Z,5.4760
2024-03-26T07:18:56.873Z,5.3838
2024-03-26T07:19:59.631Z,5.5059
2024-03-26T07:21:02.340Z,5.3930
2024-03-26T07:22:05.115Z,5.3194
2024-03-26T07:23:07.754Z,5.3548
2024-03-26T07:24:10.503Z,5.3867
2024-03-26T07:25:13.241Z,5.2884
2024-03-26T07:26:15.960Z,5.3387
2024-03-26T07:27:18.663Z,5.4154
2024-03-26T07:28:21.374Z,5.4525
2024-03-26T07:29:24.099Z,5.5220
2024-03-26T07:30:26.844Z,5.5372
2024-03-26T07:31:29.511Z,5.5410
2024-03-26T07:32:32.223Z,5.6579
2024-03-26T07:33:34.985Z,5.8107
2024-03-26T07:34:37.723Z,5.6659
2024-03-26T07:35:40.443Z,5.7803
2024-03-26T07:36:43.162Z,5.9217
2024-03-26T07:37:45.859Z,6.0362
2024-03-26T07:38:48.591Z,6.1487
2024-03-26T07:39:51.277Z,6.0948
2024-03-26T07:40:53.998Z,6.3994
2024-03-26T07:41:56.743Z,6.5409
2024-03-26T07:43:01.417Z,6.5010
2024-03-26T07:43:59.419Z,6.4896
2024-03-26T07:45:02.536Z,6.7800
2024-03-26T07:46:05.208Z,7.1638
2024-03-26T07:47:08.098Z,7.0360
2024-03-26T07:48:10.857Z,6.9674
2024-03-26T07:49:13.561Z,7.0825
2024-03-26T07:50:16.302Z,7.1257
2024-03-26T07:51:19.646Z,7.2457
2024-03-26T07:52:19.545Z,7.1542
2024-03-26T07:53:22.333Z,7.1622
2024-03-26T07:54:24.947Z,7.5180
2024-03-26T07:55:27.688Z,7.4221
2024-03-26T07:56:30.389Z,7.2085
2024-03-26T07:57:33.115Z,7.4684
2024-03-26T07:58:35.786Z,7.7350
2024-03-26T07:59:38.533Z,7.8804
2024-03-26T08:00:41.323Z,7.9400
2024-03-26T08:01:44.263Z,7.9178
2024-03-26T08:02:46.948Z,7.7667
2024-03-26T08:03:49.712Z,7.8059
2024-03-26T08:04:52.414Z,8.0860
2024-03-26T08:05:55.220Z,7.8813
2024-03-26T08:06:57.941Z,8.0091
2024-03-26T08:08:00.878Z,8.0479
2024-03-26T08:09:03.612Z,7.8553
2024-03-26T08:10:06.399Z,7.8903
2024-03-26T08:11:09.381Z,8.1855
2024-03-26T08:12:12.050Z,8.1455
2024-03-26T08:13:14.823Z,8.2020
2024-03-26T08:14:17.581Z,8.2257
2024-03-26T08:15:20.303Z,8.3925
2024-03-26T08:16:23.032Z,8.7334
2024-03-26T08:17:25.735Z,8.6861
2024-03-26T08:18:28.493Z,8.8282
2024-03-26T08:19:31.630Z,8.9375
2024-03-26T08:20:31.383Z,8.9025
2024-03-26T08:21:34.079Z,8.9807
2024-03-26T08:22:36.761Z,9.0926
2024-03-26T08:23:39.480Z,8.8509
2024-03-26T08:24:42.240Z,8.8933
2024-03-26T08:25:44.940Z,9.0534
2024-03-26T08:26:47.636Z,9.0302
2024-03-26T08:27:50.341Z,9.5173
2024-03-26T08:28:53.069Z,9.3106
2024-03-26T08:29:55.777Z,9.4237
2024-03-26T08:30:58.519Z,9.5234
2024-03-26T08:32:01.218Z,9.7352
2024-03-26T08:33:04.408Z,9.7573
2024-03-26T08:34:07.142Z,9.7202
2024-03-26T08:35:09.859Z,9.7980
2024-03-26T08:36:13.017Z,9.8548
2024-03-26T08:37:12.670Z,10.1128
2024-03-26T08:38:15.355Z,9.8821
2024-03-26T08:39:18.055Z,9.8033
2024-03-26T08:40:20.941Z,9.8619
2024-03-26T08:41:23.793Z,9.5823
2024-03-26T08:42:26.519Z,9.9051
2024-03-26T08:43:29.285Z,9.7388
2024-03-26T08:44:32.351Z,9.5625
2024-03-26T08:45:35.019Z,9.5016
2024-03-26T08:46:37.706Z,9.7643
2024-03-26T08:47:40.428Z,9.4884
2024-03-26T08:48:43.152Z,9.3836
2024-03-26T08:49:45.860Z,9.3538
2024-03-26T08:50:48.606Z,9.2850
2024-03-26T08:51:52.202Z,9.2673
2024-03-26T08:52:51.571Z,9.2575
2024-03-26T08:53:54.279Z,9.4657
2024-03-26T08:54:56.979Z,9.5421
2024-03-26T08:56:08.565Z,9.5413
2024-03-26T08:57:01.407Z,9.5491
2024-03-26T08:58:04.058Z,9.7075
2024-03-26T08:59:06.806Z,9.7852
2024-03-26T09:00:09.557Z,9.6038
2024-03-26T09:01:12.279Z,10.1102
2024-03-26T09:02:14.992Z,10.0104
2024-03-26T09:03:17.772Z,9.9825
2024-03-26T09:04:21.934Z,10.1421
2024-03-26T09:05:22.608Z,10.1764
2024-03-26T09:06:25.299Z,10.3148
2024-03-26T09:07:28.206Z,10.4213
2024-03-26T09:08:31.000Z,10.4650
2024-03-26T09:09:33.696Z,10.2989
2024-03-26T09:10:36.431Z,10.6194
2024-03-26T09:11:39.146Z,10.8453
2024-03-26T09:12:41.865Z,10.9600
2024-03-26T09:13:45.019Z,10.9418
2024-03-26T09:14:47.692Z,10.6930
2024-03-26T09:15:50.482Z,11.1713
2024-03-26T09:16:53.192Z,11.0481
2024-03-26T09:17:55.922Z,11.3923
2024-03-26T09:19:01.701Z,11.8541
2024-03-26T09:20:01.641Z,11.2635
2024-03-26T09:21:04.366Z,11.1756
2024-03-26T09:22:07.316Z,11.7728
2024-03-26T09:23:10.026Z,11.3192
2024-03-26T09:24:12.719Z,11.3744
2024-03-26T09:25:15.460Z,10.9119
2024-03-26T09:26:18.195Z,11.2138
2024-03-26T09:27:20.922Z,11.4444
2024-03-26T09:28:23.692Z,11.8397
2024-03-26T09:29:26.365Z,11.8693
2024-03-26T09:30:29.377Z,12.2830
2024-03-26T09:31:32.141Z,11.9571
2024-03-26T09:32:34.830Z,12.2947
2024-03-26T09:33:37.597Z,11.8482
2024-03-26T09:34:40.332Z,11.6243
2024-03-26T09:35:43.308Z,12.0212
2024-03-26T09:36:46.158Z,12.4983
2024-03-26T09:37:49.941Z,12.7861
2024-03-26T09:38:51.048Z,12.5024
2024-03-26T09:39:51.748Z,11.7256
2024-03-26T09:40:54.555Z,12.2223
2024-03-26T09:41:57.439Z,11.6883
2024-03-26T09:43:00.167Z,12.5083
2024-03-26T09:44:03.050Z,12.1918
2024-03-26T09:45:06.857Z,11.3560
2024-03-26T09:46:06.659Z,11.6490
2024-03-26T09:47:09.377Z,11.0787
2024-03-26T09:48:12.096Z,11.0871
2024-03-26T09:49:14.830Z,11.1638
2024-03-26T09:50:17.628Z,11.4272
2024-03-26T09:51:20.571Z,11.6172
2024-03-26T09:52:23.331Z,11.3975
2024-03-26T09:53:26.068Z,11.7788
2024-03-26T09:54:28.996Z,11.6754
2024-03-26T09:55:31.805Z,12.4941
2024-03-26T09:56:34.528Z,11.6719
2024-03-26T09:57:37.274Z,12.2406
2024-03-26T09:58:40.289Z,11.9781
2024-03-26T09:59:43.093Z,12.3909
2024-03-26T10:00:45.834Z,12.6830
2024-03-26T10:01:48.548Z,12.1961
2024-03-26T10:02:51.454Z,12.4505
2024-03-26T10:03:54.509Z,12.1438
2024-03-26T10:04:57.244Z,12.5039
2024-03-26T10:06:00.097Z,11.9086
2024-03-26T10:07:02.982Z,11.6208
2024-03-26T10:08:05.715Z,11.3739
2024-03-26T10:09:08.735Z,11.4530
2024-03-26T10:10:11.488Z,11.7644
2024-03-26T10:11:14.273Z,11.3318
2024-03-26T10:12:17.243Z,11.4798
2024-03-26T10:13:20.003Z,11.9501
2024-03-26T10:14:22.771Z,12.4653
2024-03-26T10:15:25.700Z,12.3696
2024-03-26T10:16:28.426Z,12.4009
2024-03-26T10:17:33.250Z,12.3993
2024-03-26T10:18:32.854Z,12.6538
2024-03-26T10:19:35.608Z,12.1131
2024-03-26T10:20:38.412Z,11.7929
2024-03-26T10:21:41.373Z,12.0758
2024-03-26T10:22:44.108Z,12.0338
2024-03-26T10:23:46.901Z,12.5030
2024-03-26T10:24:49.858Z,12.2605
2024-03-26T10:25:52.572Z,12.5425
2024-03-26T10:26:55.381Z,13.0073
2024-03-26T10:27:58.097Z,12.5426
2024-03-26T10:29:01.082Z,12.4177
2024-03-26T10:30:03.886Z,12.1611
2024-03-26T10:31:06.653Z,11.4500
2024-03-26T10:32:09.629Z,11.1852
2024-03-26T10:33:12.560Z,11.3073
2024-03-26T10:34:15.245Z,11.5687
2024-03-26T10:35:18.021Z,11.7635
2024-03-26T10:36:20.815Z,12.0436
2024-03-26T10:37:23.548Z,12.1486
2024-03-26T10:38:26.487Z,12.0032
2024-03-26T10:39:29.285Z,11.5550
2024-03-26T10:40:32.021Z,11.5705
2024-03-26T10:41:34.935Z,12.3326
2024-03-26T10:42:37.968Z,11.9298
2024-03-26T10:43:40.695Z,11.9247
2024-03-26T10:44:43.704Z,11.6638
2024-03-26T10:45:59.960Z,11.7532
2024-03-26T10:46:49.399Z,11.8214
2024-03-26T10:47:48.938Z,11.4380
2024-03-26T10:48:57.495Z,11.6716
2024-03-26T10:49:53.414Z,11.6731
2024-03-26T10:50:56.625Z,11.8825
2024-03-26T10:51:59.377Z,11.5062
2024-03-26T10:53:02.296Z,11.3036
2024-03-26T10:54:05.103Z,11.6574
2024-03-26T10:55:07.830Z,11.8121
2024-03-26T10:56:10.714Z,11.6843
2024-03-26T10:57:13.478Z,11.9823
2024-03-26T10:58:16.201Z,12.0425
2024-03-26T10:59:18.979Z,12.0630
2024-03-26T11:00:21.946Z,12.0658
2024-03-26T11:01:24.666Z,12.1585
2024-03-26T11:02:27.396Z,11.9500
2024-03-26T11:03:30.106Z,12.4149
2024-03-26T11:04:32.831Z,13.1746
2024-03-26T11:05:35.861Z,13.6418
2024-03-26T11:06:38.606Z,13.4474
2024-03-26T11:07:41.577Z,13.4324
2024-03-26T11:08:44.360Z,13.6245
2024-03-26T11:09:47.115Z,13.9622
2024-03-26T11:10:52.500Z,13.4827
2024-03-26T11:11:52.099Z,13.5236
2024-03-26T11:12:54.890Z,14.6910
2024-03-26T11:13:57.639Z,15.0257
2024-03-26T11:15:00.454Z,15.0395
2024-03-26T11:16:03.799Z,14.5495
2024-03-26T11:17:04.044Z,15.6196
2024-03-26T11:18:06.936Z,15.3979
2024-03-26T11:19:09.727Z,15.7531
2024-03-26T11:20:12.668Z,15.3945
2024-03-26T11:21:15.396Z,14.6559
2024-03-26T11:22:18.459Z,14.6086
2024-03-26T11:23:21.258Z,14.4108
2024-03-26T11:24:23.998Z,14.1013
2024-03-26T11:25:26.788Z,14.0275
2024-03-26T11:26:29.657Z,14.4546
2024-03-26T11:27:32.676Z,15.1861
2024-03-26T11:28:35.391Z,14.6360
2024-03-26T11:29:38.302Z,14.0333
2024-03-26T11:30:41.157Z,15.3840
2024-03-26T11:31:43.956Z,15.3423
2024-03-26T11:32:46.707Z,15.1095
2024-03-26T11:33:49.631Z,16.0866
2024-03-26T11:34:52.459Z,14.9483
2024-03-26T11:35:55.202Z,15.4579
2024-03-26T11:36:58.108Z,15.5168
2024-03-26T11:38:03.485Z,15.9584
2024-03-26T11:39:03.087Z,16.0800
2024-03-26T11:40:06.024Z,16.4152
2024-03-26T11:41:08.984Z,16.6293
2024-03-26T11:42:11.867Z,15.9178
2024-03-26T11:43:14.762Z,16.4284
2024-03-26T11:44:17.554Z,16.2829
2024-03-26T11:45:20.518Z,15.5267
2024-03-26T11:46:23.267Z,16.8918
2024-03-26T11:47:26.101Z,15.9731
2024-03-26T11:48:28.844Z,15.4694
2024-03-26T11:49:31.762Z,15.4681
2024-03-26T11:50:34.536Z,14.7175
2024-03-26T11:51:37.869Z,14.8608
2024-03-26T11:52:38.301Z,15.0714
2024-03-26T11:53:41.310Z,14.3559
2024-03-26T11:54:44.118Z,14.3633
2024-03-26T11:55:47.085Z,15.0374
2024-03-26T11:56:49.848Z,15.0604
2024-03-26T11:57:52.625Z,14.9111
2024-03-26T11:58:55.578Z,15.6099
2024-03-26T11:59:58.326Z,15.7208
2024-03-26T12:01:01.099Z,15.5092
2024-03-26T12:02:03.839Z,14.6099
2024-03-26T12:03:06.796Z,14.4067
2024-03-26T12:04:09.524Z,15.0564
2024-03-26T12:05:12.527Z,15.2806
2024-03-26T12:06:15.245Z,14.8479
2024-03-26T12:07:17.996Z,15.6596
2024-03-26T12:08:20.749Z,15.8173
2024-03-26T12:09:23.545Z,16.0139
2024-03-26T12:10:26.317Z,15.9977
2024-03-26T12:11:29.191Z,15.5644
2024-03-26T12:12:31.879Z,15.6948
2024-03-26T12:13:34.607Z,16.3394
2024-03-26T12:14:37.345Z,16.1752
2024-03-26T12:15:40.374Z,16.4067
2024-03-26T12:16:43.331Z,16.4250
2024-03-26T12:17:46.230Z,16.1815
2024-03-26T12:18:48.969Z,16.2551
2024-03-26T12:19:51.882Z,15.8448
2024-03-26T12:20:54.946Z,16.0694
2024-03-26T12:21:57.693Z,15.7218
2024-03-26T12:23:00.492Z,16.1421
2024-03-26T12:24:03.272Z,16.3738
2024-03-26T12:25:06.166Z,16.2974
2024-03-26T12:26:08.910Z,16.1338
2024-03-26T12:27:11.844Z,15.6110
2024-03-26T12:28:14.649Z,16.4978
2024-03-26T12:29:17.399Z,16.7959
2024-03-26T12:30:20.404Z,16.5509
2024-03-26T12:31:23.325Z,16.4124
2024-03-26T12:32:26.124Z,16.2476
2024-03-26T12:33:28.949Z,16.9813
2024-03-26T12:34:31.871Z,17.2798
2024-03-26T12:35:34.624Z,17.4639
2024-03-26T12:36:37.460Z,17.4910
2024-03-26T12:37:40.390Z,17.0046
2024-03-26T12:38:43.128Z,17.1178
2024-03-26T12:39:46.109Z,17.2750
2024-03-26T12:40:48.949Z,16.8003
2024-03-26T12:41:51.696Z,16.5386
2024-03-26T12:42:54.611Z,16.4131
2024-03-26T12:43:57.330Z,16.6437
2024-03-26T12:45:00.167Z,16.8777
2024-03-26T12:46:02.974Z,16.6623
2024-03-26T12:47:05.825Z,16.2535
2024-03-26T12:48:08.649Z,16.3103
2024-03-26T12:49:11.568Z,16.7364
2024-03-26T12:50:14.392Z,16.3739
2024-03-26T12:51:17.145Z,16.8367
2024-03-26T12:52:20.041Z,17.6238
2024-03-26T12:53:22.766Z,17.5798
2024-03-26T12:54:25.816Z,17.4578
2024-03-26T12:55:28.522Z,17.8581